Time;durP1;ratioP1;P1;durP2;ratioP2;P2;SDS_P1;SDS_P2;PMS_P1;PMS_P2;Temp;Humidity;BMP_temperature;BMP_pressure;BME280_temperature;BME280_humidity;BME280_pressure;Samples;Min_cycle;Max_cycle;Signal;HPM_P1;HPM_P2
2023/12/09 05:01:42;;;;;;;16.40;8.73;;;3.70;99.90;;;;;;5334097;23;20351;-75
2023/12/09 05:04:09;;;;;;;30.73;12.95;;;3.60;99.90;;;;;;4937420;29;20217;-73
2023/12/09 05:06:36;;;;;;;15.77;10.98;;;3.70;99.90;;;;;;4950244;28;20589;-76
2023/12/09 05:09:04;;;;;;;16.45;9.88;;;3.70;99.90;;;;;;4946858;29;20732;-73
2023/12/09 05:11:30;;;;;;;19.42;9.98;;;3.70;99.90;;;;;;4936802;29;20317;-72
2023/12/09 05:13:57;;;;;;;29.45;11.40;;;3.80;99.90;;;;;;4932367;29;20656;-74
2023/12/09 05:16:24;;;;;;;14.35;9.10;;;3.70;99.90;;;;;;4932690;29;20210;-72
2023/12/09 05:18:52;;;;;;;18.92;9.75;;;3.80;99.90;;;;;;4932790;29;20673;-73
2023/12/09 05:21:18;;;;;;;19.85;10.45;;;3.80;99.90;;;;;;4930028;29;20232;-73
2023/12/09 05:23:46;;;;;;;16.40;10.20;;;3.80;99.90;;;;;;4928705;29;20216;-73
2023/12/09 05:26:22;;;;;;;23.15;10.07;;;3.80;99.90;;;;;;4937190;29;20229;-73
2023/12/09 05:28:49;;;;;;;19.58;11.02;;;3.80;99.90;;;;;;4935761;29;20266;-73
2023/12/09 05:31:16;;;;;;;17.40;10.35;;;3.80;99.90;;;;;;4938299;29;20241;-73
2023/12/09 05:33:43;;;;;;;21.02;11.65;;;3.80;99.90;;;;;;4929873;29;20205;-74
2023/12/09 05:36:11;;;;;;;21.35;11.50;;;3.80;99.90;;;;;;4938022;29;20212;-74
2023/12/09 05:38:38;;;;;;;16.98;11.07;;;3.80;99.90;;;;;;4937477;29;20202;-74
2023/12/09 05:41:05;;;;;;;15.90;8.00;;;3.80;99.90;;;;;;4929418;29;20313;-73
2023/12/09 05:43:32;;;;;;;19.35;9.38;;;3.80;99.90;;;;;;4935856;29;20550;-75
2023/12/09 05:45:58;;;;;;;13.93;9.98;;;3.80;99.90;;;;;;4936022;29;20203;-74
2023/12/09 05:48:25;;;;;;;21.33;10.75;;;3.80;99.90;;;;;;4938267;29;20220;-74
2023/12/09 05:50:52;;;;;;;19.58;8.30;;;3.90;99.90;;;;;;4939341;29;20537;-74
2023/12/09 05:53:20;;;;;;;32.60;10.98;;;3.90;99.90;;;;;;4935798;29;20213;-73
2023/12/09 05:55:46;;;;;;;23.02;9.48;;;3.90;99.90;;;;;;4943068;29;20206;-73
2023/12/09 05:58:13;;;;;;;18.33;9.98;;;3.90;99.90;;;;;;4940239;29;20669;-74
2023/12/09 06:00:40;;;;;;;13.07;7.63;;;4.00;99.90;;;;;;4939192;28;20230;-73
2023/12/09 06:03:08;;;;;;;17.17;10.50;;;4.00;99.90;;;;;;4935657;29;20244;-72
2023/12/09 06:05:34;;;;;;;18.35;10.88;;;3.90;99.90;;;;;;4936096;29;20643;-74
2023/12/09 06:08:01;;;;;;;16.85;8.68;;;4.00;99.90;;;;;;4932455;29;20230;-73
2023/12/09 06:10:29;;;;;;;16.40;7.80;;;4.00;99.90;;;;;;4940545;28;20207;-74
2023/12/09 06:12:56;;;;;;;15.80;8.68;;;4.00;99.90;;;;;;4932775;29;20222;-74
2023/12/09 06:15:22;;;;;;;13.10;9.80;;;4.10;99.90;;;;;;4930389;29;20221;-74
2023/12/09 06:17:49;;;;;;;15.20;8.88;;;4.10;99.90;;;;;;4935971;29;20213;-74
2023/12/09 06:20:16;;;;;;;17.40;9.32;;;4.10;99.90;;;;;;4935784;29;20704;-74
2023/12/09 06:22:42;;;;;;;24.65;10.30;;;4.10;99.90;;;;;;4936570;29;20573;-72
2023/12/09 06:25:09;;;;;;;16.35;9.15;;;4.10;99.90;;;;;;4936903;29;20207;-74
2023/12/09 06:27:37;;;;;;;19.85;9.32;;;4.10;99.90;;;;;;4936740;29;20237;-75
2023/12/09 06:30:05;;;;;;;20.55;10.35;;;4.20;99.90;;;;;;4937020;29;20210;-75
2023/12/09 06:32:32;;;;;;;22.00;8.18;;;4.10;99.90;;;;;;4932401;29;20684;-75
2023/12/09 06:34:59;;;;;;;21.00;8.98;;;4.20;99.90;;;;;;4937154;28;20210;-76
2023/12/09 06:37:25;;;;;;;16.30;9.57;;;4.20;99.90;;;;;;4935267;29;20642;-73
2023/12/09 06:39:52;;;;;;;12.77;7.60;;;4.20;99.90;;;;;;4935833;29;20225;-75
2023/12/09 06:42:19;;;;;;;9.85;7.43;;;4.20;99.90;;;;;;4932602;29;20730;-75
2023/12/09 06:44:47;;;;;;;13.40;8.90;;;4.20;99.90;;;;;;4931565;29;20214;-74
2023/12/09 06:47:14;;;;;;;21.67;10.20;;;4.20;99.90;;;;;;4940556;29;20214;-73
2023/12/09 06:49:40;;;;;;;15.32;8.20;;;4.20;99.90;;;;;;4934029;29;20217;-73
2023/12/09 06:52:07;;;;;;;67.07;33.53;;;4.20;99.90;;;;;;4938423;29;20240;-74
2023/12/09 06:54:34;;;;;;;104.32;41.45;;;4.20;99.90;;;;;;4935842;29;20221;-72
2023/12/09 06:57:00;;;;;;;85.07;38.42;;;4.20;99.90;;;;;;4937637;29;20223;-72
2023/12/09 06:59:27;;;;;;;33.03;18.42;;;4.20;99.90;;;;;;4937423;29;20225;-73
2023/12/09 07:01:58;;;;;;;26.17;12.68;;;4.20;99.90;;;;;;4937617;29;20234;-73
2023/12/09 07:04:25;;;;;;;34.30;19.02;;;4.20;99.90;;;;;;4939318;29;20202;-73
2023/12/09 07:06:51;;;;;;;26.55;14.45;;;4.20;99.90;;;;;;4943121;29;20210;-74
2023/12/09 07:09:18;;;;;;;14.57;9.73;;;4.20;99.90;;;;;;4944730;29;20233;-74
2023/12/09 07:11:45;;;;;;;13.10;9.80;;;4.20;99.90;;;;;;4943056;29;20233;-73
2023/12/09 07:14:15;;;;;;;23.55;11.90;;;4.20;99.90;;;;;;4942227;29;20297;-72
2023/12/09 07:16:41;;;;;;;13.55;10.48;;;4.20;99.90;;;;;;4942299;29;20217;-72
2023/12/09 07:19:09;;;;;;;23.30;10.88;;;4.20;99.90;;;;;;4933118;29;20211;-72
2023/12/09 07:21:36;;;;;;;16.50;9.73;;;4.20;99.90;;;;;;4938368;29;20313;-73
2023/12/09 07:24:03;;;;;;;24.08;11.30;;;4.20;99.90;;;;;;4935299;29;20221;-72
2023/12/09 07:26:29;;;;;;;17.65;10.27;;;4.20;99.90;;;;;;4936680;29;20210;-73
2023/12/09 07:28:56;;;;;;;21.60;14.05;;;4.20;99.90;;;;;;4931674;29;20233;-73
2023/12/09 07:31:23;;;;;;;19.65;11.10;;;4.20;99.90;;;;;;4933073;29;20249;-72
2023/12/09 07:33:50;;;;;;;13.70;7.82;;;4.20;99.90;;;;;;4930921;29;20237;-74
2023/12/09 07:36:18;;;;;;;14.50;9.07;;;4.20;99.90;;;;;;4933217;29;20208;-72
2023/12/09 07:38:44;;;;;;;13.50;8.85;;;4.20;99.90;;;;;;4932797;29;20271;-72
2023/12/09 07:41:11;;;;;;;16.75;9.38;;;4.20;99.90;;;;;;4930306;29;20242;-73
2023/12/09 07:43:38;;;;;;;19.67;11.55;;;4.20;99.90;;;;;;4934141;29;20211;-75
2023/12/09 07:46:05;;;;;;;13.52;9.15;;;4.30;99.90;;;;;;4932371;29;20553;-76
2023/12/09 07:48:33;;;;;;;16.02;8.20;;;4.40;99.90;;;;;;4931786;29;20227;-74
2023/12/09 07:51:01;;;;;;;15.27;10.60;;;4.40;99.90;;;;;;4928763;29;20734;-74
2023/12/09 07:53:29;;;;;;;16.70;9.85;;;4.40;99.90;;;;;;4931915;29;20216;-72
2023/12/09 07:55:57;;;;;;;14.55;7.97;;;4.40;99.90;;;;;;4925428;29;20211;-73
2023/12/09 07:58:24;;;;;;;13.45;8.20;;;4.30;99.90;;;;;;4929197;29;20550;-74
2023/12/09 08:00:50;;;;;;;11.07;7.30;;;4.30;99.90;;;;;;4929762;29;20298;-73
2023/12/09 08:03:17;;;;;;;12.45;8.73;;;4.30;99.90;;;;;;4932497;29;20214;-73
2023/12/09 08:05:45;;;;;;;14.27;9.00;;;4.40;99.90;;;;;;4932215;29;20217;-73
2023/12/09 08:08:12;;;;;;;17.60;9.13;;;4.40;99.90;;;;;;4931593;29;20347;-73
2023/12/09 08:10:40;;;;;;;13.50;9.05;;;4.40;99.90;;;;;;4932339;29;20580;-71
2023/12/09 08:13:08;;;;;;;14.32;8.02;;;4.40;99.90;;;;;;4931445;29;20673;-71
2023/12/09 08:15:35;;;;;;;12.45;8.15;;;4.40;99.90;;;;;;4931520;29;20656;-72
2023/12/09 08:18:03;;;;;;;14.93;9.23;;;4.40;99.90;;;;;;4931493;29;20207;-74
2023/12/09 08:20:30;;;;;;;15.00;9.80;;;4.40;99.90;;;;;;4932473;29;20234;-72
2023/12/09 08:22:56;;;;;;;12.57;7.85;;;4.40;99.90;;;;;;4932304;29;20238;-72
2023/12/09 08:25:23;;;;;;;20.05;9.27;;;4.40;99.90;;;;;;4933452;29;20216;-72
2023/12/09 08:27:51;;;;;;;28.65;15.85;;;4.40;99.90;;;;;;4930536;29;20223;-72
2023/12/09 08:30:18;;;;;;;19.38;11.73;;;4.40;99.90;;;;;;4930479;29;20301;-72
2023/12/09 08:32:45;;;;;;;18.23;10.63;;;4.40;99.90;;;;;;4930888;29;20218;-73
2023/12/09 08:35:12;;;;;;;25.70;11.00;;;4.40;99.90;;;;;;4931789;29;20231;-73
2023/12/09 08:37:39;;;;;;;19.27;11.43;;;4.50;99.90;;;;;;4931930;29;20218;-73
2023/12/09 08:40:10;;;;;;;11.52;8.20;;;4.40;99.90;;;;;;4932905;29;20307;-72
2023/12/09 08:42:38;;;;;;;17.83;11.35;;;4.50;99.90;;;;;;4932365;29;20212;-72
2023/12/09 08:45:08;;;;;;;16.88;10.75;;;4.60;99.90;;;;;;4928210;29;20217;-72
2023/12/09 08:47:35;;;;;;;20.58;13.38;;;4.60;99.90;;;;;;4932010;29;20222;-71
2023/12/09 08:50:02;;;;;;;16.02;9.73;;;4.60;99.90;;;;;;4932325;29;20238;-71
2023/12/09 08:52:28;;;;;;;13.68;8.07;;;4.60;99.90;;;;;;4927150;29;20235;-72
2023/12/09 08:54:55;;;;;;;15.85;9.55;;;4.60;99.90;;;;;;4926942;29;20646;-72
2023/12/09 08:57:22;;;;;;;15.45;7.60;;;4.60;99.90;;;;;;4932344;29;20237;-72
2023/12/09 08:59:48;;;;;;;16.98;9.23;;;4.60;99.90;;;;;;4930360;29;20205;-72
2023/12/09 09:02:16;;;;;;;14.48;7.85;;;4.60;99.90;;;;;;4928841;29;20240;-72
2023/12/09 09:04:43;;;;;;;24.13;9.02;;;4.60;99.90;;;;;;4933093;29;20221;-72
2023/12/09 09:07:10;;;;;;;9.98;7.32;;;4.70;99.90;;;;;;4930485;29;20224;-72
2023/12/09 09:09:38;;;;;;;14.10;7.68;;;4.70;99.90;;;;;;4931974;29;20239;-73
2023/12/09 09:12:06;;;;;;;19.42;10.20;;;4.70;99.90;;;;;;4931853;29;20241;-72
2023/12/09 09:14:32;;;;;;;21.20;12.75;;;4.70;99.90;;;;;;4930968;29;20229;-73
2023/12/09 09:16:59;;;;;;;20.35;14.38;;;4.70;99.90;;;;;;4932361;29;20215;-73
2023/12/09 09:19:27;;;;;;;10.32;9.32;;;4.80;99.90;;;;;;4931859;29;20204;-71
2023/12/09 09:21:54;;;;;;;17.55;8.18;;;4.80;99.90;;;;;;4929223;29;20227;-72
2023/12/09 09:24:21;;;;;;;12.65;9.52;;;4.80;99.90;;;;;;4928239;29;20217;-72
2023/12/09 09:26:47;;;;;;;16.50;9.95;;;4.80;99.90;;;;;;4930413;29;20223;-72
2023/12/09 09:29:14;;;;;;;12.13;7.47;;;4.90;99.90;;;;;;4929097;29;20231;-71
2023/12/09 09:31:41;;;;;;;16.05;8.90;;;4.90;99.90;;;;;;4925983;29;20257;-73
2023/12/09 09:34:07;;;;;;;16.45;11.80;;;4.90;99.90;;;;;;4927892;29;20220;-73
2023/12/09 09:36:35;;;;;;;14.40;8.15;;;4.90;99.90;;;;;;4930319;29;20682;-72
2023/12/09 09:39:02;;;;;;;33.53;21.05;;;5.00;99.90;;;;;;4931361;29;20226;-72
2023/12/09 09:41:33;;;;;;;54.67;28.20;;;5.00;99.90;;;;;;4930551;29;20232;-72
2023/12/09 09:44:11;;;;;;;28.50;18.08;;;5.00;99.90;;;;;;4930094;29;20224;-72
2023/12/09 09:46:40;;;;;;;11.30;8.93;;;5.00;99.90;;;;;;4929349;29;20217;-72
2023/12/09 09:49:09;;;;;;;15.73;7.57;;;4.90;99.90;;;;;;4929663;29;20233;-72
2023/12/09 09:51:40;;;;;;;18.00;10.80;;;4.90;99.90;;;;;;4931336;29;20265;-72
2023/12/09 09:54:13;;;;;;;16.98;9.57;;;4.90;99.90;;;;;;4925922;29;20301;-72
2023/12/09 09:56:41;;;;;;;26.05;14.15;;;4.90;99.90;;;;;;4923480;29;20213;-72
2023/12/09 09:59:08;;;;;;;38.88;23.70;;;4.80;99.90;;;;;;4929234;29;20569;-71
2023/12/09 10:01:37;;;;;;;20.02;11.07;;;4.90;99.90;;;;;;4928767;29;20269;-72
2023/12/09 10:04:04;;;;;;;20.33;9.07;;;4.80;99.90;;;;;;4927012;29;20274;-72
2023/12/09 10:06:31;;;;;;;14.15;8.20;;;4.90;99.90;;;;;;4930457;29;20723;-71
2023/12/09 10:08:59;;;;;;;23.55;9.50;;;4.90;99.90;;;;;;4930450;29;20231;-72
2023/12/09 10:11:26;;;;;;;15.35;9.60;;;4.90;99.90;;;;;;4934040;29;20243;-72
2023/12/09 10:13:53;;;;;;;29.33;13.80;;;4.90;99.90;;;;;;4934546;29;20206;-72
2023/12/09 10:16:19;;;;;;;21.67;9.90;;;4.90;99.90;;;;;;4932370;29;20210;-72
2023/12/09 10:18:47;;;;;;;13.05;8.32;;;5.00;99.90;;;;;;4934994;29;20208;-73
2023/12/09 10:21:14;;;;;;;16.48;9.80;;;5.00;99.90;;;;;;4929798;29;20240;-73
2023/12/09 10:23:41;;;;;;;11.00;8.38;;;5.10;99.90;;;;;;4931948;29;20432;-72
2023/12/09 10:26:10;;;;;;;10.93;8.60;;;5.10;99.90;;;;;;4933120;29;20208;-71
2023/12/09 10:28:37;;;;;;;16.80;10.15;;;5.10;99.90;;;;;;4932440;29;20209;-73
2023/12/09 10:31:04;;;;;;;9.60;7.00;;;5.10;99.90;;;;;;4933879;29;20229;-73
2023/12/09 10:33:31;;;;;;;17.48;8.57;;;5.10;99.90;;;;;;4934999;29;20230;-73
2023/12/09 10:35:58;;;;;;;14.80;9.23;;;5.20;99.90;;;;;;4934702;29;20645;-73
2023/12/09 10:38:24;;;;;;;12.02;9.32;;;5.20;99.90;;;;;;4932930;29;20209;-73
2023/12/09 10:40:53;;;;;;;13.93;8.70;;;5.20;99.90;;;;;;4930929;29;20702;-72
2023/12/09 10:43:21;;;;;;;8.43;6.97;;;5.20;99.90;;;;;;4931070;29;20224;-73
2023/12/09 10:45:48;;;;;;;16.13;8.80;;;5.20;99.90;;;;;;4934601;29;20214;-72
2023/12/09 10:48:15;;;;;;;17.05;9.95;;;5.20;99.90;;;;;;4931838;29;20248;-72
2023/12/09 10:50:45;;;;;;;10.95;7.40;;;5.20;99.90;;;;;;4931820;29;20286;-73
2023/12/09 10:53:11;;;;;;;18.33;10.77;;;5.20;99.90;;;;;;4931331;29;20218;-72
2023/12/09 10:55:39;;;;;;;15.25;7.80;;;5.30;99.90;;;;;;4933181;29;20698;-72
2023/12/09 10:58:07;;;;;;;19.42;8.70;;;5.30;99.90;;;;;;4930706;29;20212;-72
2023/12/09 11:00:36;;;;;;;12.38;8.43;;;5.30;99.90;;;;;;4932867;29;20254;-72
2023/12/09 11:03:03;;;;;;;12.02;10.23;;;5.40;99.90;;;;;;4926261;29;20338;-72
2023/12/09 11:05:33;;;;;;;19.15;10.05;;;5.40;99.90;;;;;;4930538;29;20216;-72
2023/12/09 11:08:01;;;;;;;15.30;10.32;;;5.40;99.90;;;;;;4932057;29;20238;-72
2023/12/09 11:10:28;;;;;;;12.02;8.68;;;5.30;99.90;;;;;;4931258;29;20255;-73
2023/12/09 11:12:55;;;;;;;10.43;6.40;;;5.30;99.90;;;;;;4930936;29;20213;-72
2023/12/09 11:15:30;;;;;;;7.97;7.10;;;5.20;99.90;;;;;;4933349;29;20226;-73
2023/12/09 11:18:07;;;;;;;7.82;6.10;;;5.20;99.90;;;;;;4932770;29;20213;-71
2023/12/09 11:20:34;;;;;;;9.65;6.50;;;5.20;99.90;;;;;;4932668;29;20465;-73
2023/12/09 11:23:01;;;;;;;13.00;8.07;;;5.20;99.90;;;;;;4929746;29;20235;-72
2023/12/09 11:25:30;;;;;;;12.40;6.45;;;5.40;99.90;;;;;;4929836;29;20216;-72
2023/12/09 11:27:58;;;;;;;7.80;6.35;;;5.50;99.90;;;;;;4933720;29;20219;-73
2023/12/09 11:30:36;;;;;;;8.93;7.30;;;5.50;99.90;;;;;;4932815;29;20386;-72
2023/12/09 11:33:05;;;;;;;8.88;7.32;;;5.60;99.90;;;;;;4933206;29;20322;-72
2023/12/09 11:35:34;;;;;;;10.82;7.55;;;5.50;99.90;;;;;;4929851;29;20207;-72
2023/12/09 11:38:02;;;;;;;8.20;6.60;;;5.50;99.90;;;;;;4930942;29;20209;-72
2023/12/09 11:40:30;;;;;;;13.07;8.80;;;5.50;99.90;;;;;;4932193;29;20208;-72
2023/12/09 11:42:57;;;;;;;18.00;10.18;;;5.50;99.90;;;;;;4927093;29;20205;-71
2023/12/09 11:45:25;;;;;;;15.60;10.75;;;5.50;99.90;;;;;;4933285;29;20294;-72
2023/12/09 11:47:54;;;;;;;15.30;9.02;;;5.60;99.90;;;;;;4932034;29;20244;-72
2023/12/09 11:50:22;;;;;;;11.13;7.15;;;5.70;99.90;;;;;;4931103;29;20248;-71
2023/12/09 11:52:49;;;;;;;12.32;9.65;;;5.60;99.90;;;;;;4933023;29;20208;-71
2023/12/09 11:55:17;;;;;;;13.02;8.07;;;5.60;99.90;;;;;;4932075;29;20210;-71
2023/12/09 11:57:44;;;;;;;8.80;5.60;;;5.60;99.90;;;;;;4931958;29;20235;-72
2023/12/09 12:00:12;;;;;;;10.57;7.50;;;5.60;99.90;;;;;;4931655;29;20279;-73
2023/12/09 12:02:39;;;;;;;5.60;4.78;;;5.60;99.90;;;;;;4930487;29;20639;-72
2023/12/09 12:05:07;;;;;;;6.88;6.00;;;5.60;99.90;;;;;;4929643;29;20216;-72
2023/12/09 12:07:36;;;;;;;11.18;6.85;;;5.60;99.90;;;;;;4932039;29;20225;-72
2023/12/09 12:10:03;;;;;;;7.07;6.43;;;5.60;99.90;;;;;;4928398;29;20232;-72
2023/12/09 12:12:30;;;;;;;6.25;5.10;;;5.60;99.90;;;;;;4928415;29;20264;-72
2023/12/09 12:14:57;;;;;;;7.22;4.93;;;5.60;99.90;;;;;;4930405;29;20216;-72
2023/12/09 12:17:23;;;;;;;9.05;6.53;;;5.50;99.90;;;;;;4931743;29;20238;-73
2023/12/09 12:19:49;;;;;;;7.65;5.30;;;5.50;99.90;;;;;;4927688;29;20644;-73
2023/12/09 12:22:16;;;;;;;6.47;5.60;;;5.50;99.90;;;;;;4924522;29;20231;-72
2023/12/09 12:24:45;;;;;;;6.05;5.45;;;5.50;99.90;;;;;;4928485;29;20222;-73
2023/12/09 12:27:12;;;;;;;13.68;5.80;;;5.50;99.90;;;;;;4925611;29;20204;-72
2023/12/09 12:29:39;;;;;;;7.03;6.05;;;5.50;99.90;;;;;;4930584;29;20234;-72
2023/12/09 12:32:07;;;;;;;8.90;6.75;;;5.50;99.90;;;;;;4931527;29;20224;-72
2023/12/09 12:34:33;;;;;;;8.10;5.65;;;5.50;99.90;;;;;;4931910;29;20305;-71
2023/12/09 12:37:00;;;;;;;11.60;7.65;;;5.50;99.90;;;;;;4931644;29;20219;-73
2023/12/09 12:39:27;;;;;;;10.88;6.28;;;5.50;99.90;;;;;;4932628;29;20211;-73
2023/12/09 12:41:56;;;;;;;15.02;7.88;;;5.50;99.90;;;;;;4929206;29;20620;-73
2023/12/09 12:44:24;;;;;;;8.18;6.55;;;5.50;99.90;;;;;;4930058;29;20226;-73
2023/12/09 12:46:51;;;;;;;8.95;5.97;;;5.60;99.90;;;;;;4926948;29;20310;-73
2023/12/09 12:49:17;;;;;;;9.82;7.15;;;5.60;99.90;;;;;;4925704;29;20236;-73
2023/12/09 12:51:44;;;;;;;14.20;8.30;;;5.60;99.90;;;;;;4929971;29;20468;-72
2023/12/09 12:54:11;;;;;;;15.88;9.18;;;5.60;99.90;;;;;;4932279;29;20209;-72
2023/12/09 12:56:38;;;;;;;11.73;7.00;;;5.70;99.90;;;;;;4931427;29;20736;-73
2023/12/09 12:59:06;;;;;;;6.40;5.80;;;5.70;99.90;;;;;;4933221;29;20259;-73
2023/12/09 13:01:33;;;;;;;10.40;4.68;;;5.60;99.90;;;;;;4929391;29;20237;-72
2023/12/09 13:03:59;;;;;;;8.85;7.25;;;5.70;99.90;;;;;;4930425;29;20243;-73
2023/12/09 13:06:26;;;;;;;7.38;4.53;;;5.70;99.90;;;;;;4929128;29;20205;-72
2023/12/09 13:08:53;;;;;;;5.90;5.32;;;5.60;99.90;;;;;;4931784;29;20212;-73
2023/12/09 13:11:20;;;;;;;14.63;6.80;;;5.70;99.90;;;;;;4931876;29;20704;-72
2023/12/09 13:13:46;;;;;;;9.05;6.25;;;5.70;99.90;;;;;;4931801;29;20236;-73
2023/12/09 13:16:15;;;;;;;7.18;6.43;;;5.70;99.90;;;;;;4931358;29;20223;-73
2023/12/09 13:18:42;;;;;;;16.33;7.22;;;5.70;99.90;;;;;;4932190;29;20315;-72
2023/12/09 13:21:10;;;;;;;10.52;7.18;;;5.70;99.90;;;;;;4932208;29;20228;-73
2023/12/09 13:23:36;;;;;;;12.93;6.80;;;5.70;99.90;;;;;;4931182;29;20252;-73
2023/12/09 13:26:03;;;;;;;10.82;6.75;;;5.70;99.90;;;;;;4931415;29;20217;-72
2023/12/09 13:28:30;;;;;;;9.45;5.85;;;5.70;99.90;;;;;;4926678;29;20656;-72
2023/12/09 13:30:57;;;;;;;9.85;5.65;;;5.80;99.90;;;;;;4930615;29;20233;-73
2023/12/09 13:33:25;;;;;;;11.68;5.78;;;5.80;99.90;;;;;;4924959;29;20292;-73
2023/12/09 13:35:51;;;;;;;6.00;5.15;;;5.80;99.90;;;;;;4930029;29;20217;-72
2023/12/09 13:38:18;;;;;;;6.10;5.53;;;5.80;99.90;;;;;;4928429;29;20213;-73
2023/12/09 13:40:46;;;;;;;5.28;4.78;;;5.80;99.90;;;;;;4929463;29;20236;-73
2023/12/09 13:43:12;;;;;;;13.45;7.15;;;5.80;99.90;;;;;;4932306;29;20694;-73
2023/12/09 13:45:39;;;;;;;4.90;4.50;;;5.80;99.90;;;;;;4933664;29;20231;-73
2023/12/09 13:48:06;;;;;;;13.63;6.65;;;5.80;99.90;;;;;;4935767;29;20220;-73
2023/12/09 13:50:34;;;;;;;6.20;3.70;;;5.80;99.90;;;;;;4934783;29;20256;-73
2023/12/09 13:53:02;;;;;;;5.53;4.20;;;5.80;99.90;;;;;;4935936;29;20204;-73
2023/12/09 13:55:28;;;;;;;9.07;4.93;;;5.80;99.90;;;;;;4934401;29;20895;-73
2023/12/09 13:57:55;;;;;;;6.50;3.80;;;5.80;99.90;;;;;;4929111;29;20579;-72
2023/12/09 14:00:22;;;;;;;6.10;4.38;;;5.80;99.90;;;;;;4935104;29;20306;-72
2023/12/09 14:02:49;;;;;;;4.30;3.90;;;5.80;99.90;;;;;;4933596;29;20213;-74
2023/12/09 14:05:16;;;;;;;6.50;5.30;;;5.80;99.90;;;;;;4933916;29;20296;-74
2023/12/09 14:07:44;;;;;;;8.50;4.93;;;5.80;99.90;;;;;;4933238;29;20411;-76
2023/12/09 14:10:12;;;;;;;7.40;4.88;;;5.80;99.90;;;;;;4933991;29;20243;-75
2023/12/09 14:12:40;;;;;;;8.82;4.90;;;5.80;99.90;;;;;;4933163;29;20590;-73
2023/12/09 14:15:08;;;;;;;5.03;4.50;;;5.80;99.90;;;;;;4935650;29;20291;-73
2023/12/09 14:17:35;;;;;;;4.45;3.72;;;5.80;99.90;;;;;;4935237;29;20211;-73
2023/12/09 14:20:02;;;;;;;4.40;3.80;;;5.80;99.90;;;;;;4935278;29;20211;-73
2023/12/09 14:22:31;;;;;;;4.68;4.28;;;5.80;99.90;;;;;;4932157;29;20235;-73
2023/12/09 14:24:59;;;;;;;7.35;4.25;;;5.80;99.90;;;;;;4928855;29;20219;-73
2023/12/09 14:27:25;;;;;;;6.45;4.13;;;5.70;99.90;;;;;;4933610;29;20224;-73
2023/12/09 14:29:52;;;;;;;7.43;4.22;;;5.70;99.90;;;;;;4933970;29;20208;-73
2023/12/09 14:32:19;;;;;;;4.63;4.32;;;5.70;99.90;;;;;;4932890;29;20232;-73
2023/12/09 14:34:46;;;;;;;7.38;4.30;;;5.70;99.90;;;;;;4932591;29;20667;-73
2023/12/09 14:37:13;;;;;;;4.93;3.75;;;5.70;99.90;;;;;;4933360;29;20671;-72
2023/12/09 14:39:40;;;;;;;6.03;3.97;;;5.70;99.90;;;;;;4933712;29;20232;-71
2023/12/09 14:42:08;;;;;;;4.18;3.85;;;5.70;99.90;;;;;;4934557;29;20226;-72
2023/12/09 14:44:35;;;;;;;4.30;3.90;;;5.70;99.90;;;;;;4933022;29;20218;-72
2023/12/09 14:47:01;;;;;;;4.72;4.35;;;5.60;99.90;;;;;;4933883;29;20208;-72
2023/12/09 14:49:28;;;;;;;9.70;5.97;;;5.60;99.90;;;;;;4933629;29;20221;-72
2023/12/09 14:51:55;;;;;;;4.70;4.30;;;5.60;99.90;;;;;;4930192;29;20339;-73
2023/12/09 14:54:22;;;;;;;3.60;3.50;;;5.50;99.90;;;;;;4930084;29;20208;-72
2023/12/09 14:56:49;;;;;;;4.35;3.80;;;5.60;99.90;;;;;;4934291;29;20225;-73
2023/12/09 14:59:17;;;;;;;5.20;4.18;;;5.60;99.90;;;;;;4930226;29;20231;-73
2023/12/09 15:01:44;;;;;;;3.72;3.42;;;5.60;99.90;;;;;;4928934;29;20278;-73
2023/12/09 15:04:10;;;;;;;5.72;3.40;;;5.60;99.90;;;;;;4932564;29;20233;-72
2023/12/09 15:06:37;;;;;;;4.13;3.67;;;5.50;99.90;;;;;;4932097;29;20220;-73
2023/12/09 15:09:04;;;;;;;3.72;2.88;;;5.50;99.90;;;;;;4933045;29;20216;-73
2023/12/09 15:11:30;;;;;;;5.47;3.85;;;5.50;99.90;;;;;;4933754;29;20317;-72
2023/12/09 15:13:57;;;;;;;6.38;4.40;;;5.50;99.90;;;;;;4931307;29;20672;-72
2023/12/09 15:16:26;;;;;;;3.50;3.33;;;5.50;99.90;;;;;;4933950;29;20211;-73
2023/12/09 15:18:52;;;;;;;4.57;4.28;;;5.50;99.90;;;;;;4933034;29;20211;-73
2023/12/09 15:21:19;;;;;;;5.28;3.25;;;5.50;99.90;;;;;;4930346;29;20266;-73
2023/12/09 15:23:46;;;;;;;5.28;4.00;;;5.50;99.90;;;;;;4931890;29;20210;-73
2023/12/09 15:26:13;;;;;;;3.42;3.22;;;5.50;99.90;;;;;;4931830;29;20207;-73
2023/12/09 15:28:39;;;;;;;4.07;3.78;;;5.50;99.90;;;;;;4933835;29;20217;-73
2023/12/09 15:31:07;;;;;;;2.80;2.60;;;5.40;99.90;;;;;;4932134;29;20254;-73
2023/12/09 15:33:35;;;;;;;10.63;3.55;;;5.40;99.90;;;;;;4936222;29;20260;-74
2023/12/09 15:36:02;;;;;;;4.00;3.03;;;5.40;99.90;;;;;;4934470;29;20295;-73
2023/12/09 15:38:29;;;;;;;5.90;3.72;;;5.50;99.90;;;;;;4931615;29;20209;-72
2023/12/09 15:40:55;;;;;;;4.10;3.72;;;5.40;99.90;;;;;;4929028;29;20227;-75
2023/12/09 15:43:22;;;;;;;4.15;3.25;;;5.40;99.90;;;;;;4927295;29;20241;-76
2023/12/09 15:45:49;;;;;;;4.57;4.18;;;5.40;99.90;;;;;;4926933;29;21147;-75
2023/12/09 15:48:16;;;;;;;4.00;3.17;;;5.40;99.90;;;;;;4931735;29;20215;-74
2023/12/09 15:50:44;;;;;;;10.63;4.70;;;5.40;99.90;;;;;;4931927;29;20262;-74
2023/12/09 15:53:11;;;;;;;6.50;3.38;;;5.30;99.90;;;;;;4936974;29;20224;-74
2023/12/09 15:55:38;;;;;;;4.90;3.88;;;5.30;99.90;;;;;;4932815;29;20647;-75
2023/12/09 15:58:05;;;;;;;4.15;3.67;;;5.30;99.90;;;;;;4934151;29;20216;-74
2023/12/09 16:00:33;;;;;;;3.95;3.65;;;5.20;99.90;;;;;;4923884;29;20212;-74
2023/12/09 16:03:00;;;;;;;3.83;3.40;;;5.20;99.90;;;;;;4925398;29;20651;-74
2023/12/09 16:05:27;;;;;;;2.90;2.80;;;5.20;99.90;;;;;;4931474;29;20228;-74
2023/12/09 16:07:55;;;;;;;3.20;3.00;;;5.20;99.90;;;;;;4932179;29;20207;-74
2023/12/09 16:10:22;;;;;;;3.95;3.58;;;5.30;99.90;;;;;;4931664;29;20671;-74
2023/12/09 16:12:48;;;;;;;5.03;2.28;;;5.20;99.90;;;;;;4932981;29;20219;-75
2023/12/09 16:15:17;;;;;;;3.38;3.10;;;5.30;99.90;;;;;;4930901;29;20216;-75
2023/12/09 16:17:43;;;;;;;4.13;2.95;;;5.30;99.90;;;;;;4932271;29;20247;-73
2023/12/09 16:20:11;;;;;;;3.53;3.00;;;5.30;99.90;;;;;;4930986;29;20207;-76
2023/12/09 16:22:38;;;;;;;2.33;2.22;;;5.20;99.90;;;;;;4927147;29;20302;-74
2023/12/09 16:25:07;;;;;;;5.07;3.28;;;5.20;99.90;;;;;;4932800;29;20215;-74
2023/12/09 16:27:34;;;;;;;2.85;2.65;;;5.20;99.90;;;;;;4931847;29;20263;-74
2023/12/09 16:30:01;;;;;;;2.90;2.80;;;5.30;99.90;;;;;;4930862;29;20298;-74
2023/12/09 16:32:27;;;;;;;3.90;3.00;;;5.30;99.90;;;;;;4932734;29;20247;-76
2023/12/09 16:34:54;;;;;;;3.15;2.95;;;5.20;99.90;;;;;;4928869;29;20214;-75
2023/12/09 16:37:23;;;;;;;4.55;3.50;;;5.20;99.90;;;;;;4927864;29;20225;-72
2023/12/09 16:39:49;;;;;;;2.65;2.50;;;5.20;99.90;;;;;;4927753;29;20227;-75
2023/12/09 16:42:18;;;;;;;4.05;3.70;;;5.20;99.90;;;;;;4930986;29;20226;-74
2023/12/09 16:44:44;;;;;;;4.25;3.42;;;5.20;99.90;;;;;;4932182;29;20678;-74
2023/12/09 16:47:11;;;;;;;8.07;3.30;;;5.20;99.90;;;;;;4932519;29;20203;-73
2023/12/09 16:49:38;;;;;;;2.35;2.25;;;5.20;99.90;;;;;;4924436;29;20232;-73
2023/12/09 16:52:05;;;;;;;1.85;1.80;;;5.20;99.90;;;;;;4932359;29;20230;-74
2023/12/09 16:54:32;;;;;;;3.00;2.80;;;5.30;99.90;;;;;;4932483;29;20216;-73
2023/12/09 16:56:59;;;;;;;7.05;4.10;;;5.30;99.90;;;;;;4932513;29;20211;-74
2023/12/09 16:59:27;;;;;;;4.97;3.78;;;5.30;99.90;;;;;;4930232;29;20212;-75
2023/12/09 17:01:54;;;;;;;3.35;3.10;;;5.30;99.90;;;;;;4931422;29;20245;-76
2023/12/09 17:04:21;;;;;;;3.10;2.90;;;5.30;99.90;;;;;;4932780;29;20211;-74
2023/12/09 17:06:51;;;;;;;2.72;2.53;;;5.30;99.90;;;;;;4932367;29;20580;-74
2023/12/09 17:09:18;;;;;;;4.53;2.40;;;5.20;99.90;;;;;;4930923;29;20240;-73
2023/12/09 17:11:45;;;;;;;8.88;2.35;;;5.20;99.90;;;;;;4932638;29;20294;-74
2023/12/09 17:14:12;;;;;;;4.65;2.30;;;5.20;99.90;;;;;;4931350;29;20869;-74
2023/12/09 17:16:41;;;;;;;3.33;3.03;;;5.20;99.90;;;;;;4931289;29;20207;-74
2023/12/09 17:19:08;;;;;;;4.13;3.58;;;5.20;99.90;;;;;;4930296;29;20206;-74
2023/12/09 17:21:35;;;;;;;3.80;3.10;;;5.20;99.90;;;;;;4925708;29;20229;-73
2023/12/09 17:24:01;;;;;;;3.00;2.90;;;5.20;99.90;;;;;;4925198;29;20293;-75
2023/12/09 17:26:29;;;;;;;5.45;2.20;;;5.20;99.90;;;;;;4930807;29;20269;-74
2023/12/09 17:28:55;;;;;;;4.00;2.53;;;5.20;99.90;;;;;;4923589;29;20279;-74
2023/12/09 17:31:22;;;;;;;6.35;3.22;;;5.20;99.90;;;;;;4931413;29;20236;-75
2023/12/09 17:33:50;;;;;;;3.58;2.85;;;5.20;99.90;;;;;;4931784;29;20211;-74
2023/12/09 17:36:17;;;;;;;4.57;2.88;;;5.20;99.90;;;;;;4931193;29;20211;-74
2023/12/09 17:38:44;;;;;;;3.72;2.95;;;5.20;99.90;;;;;;4931254;29;20213;-74
2023/12/09 17:41:10;;;;;;;3.25;3.15;;;5.30;99.90;;;;;;4931600;29;20218;-74
2023/12/09 17:43:38;;;;;;;3.13;2.92;;;5.30;99.90;;;;;;4929345;29;20302;-72
2023/12/09 17:46:05;;;;;;;4.65;3.05;;;5.30;99.90;;;;;;4926803;29;20227;-73
2023/12/09 17:48:31;;;;;;;3.58;3.38;;;5.30;99.90;;;;;;4927476;29;20237;-74
2023/12/09 17:50:59;;;;;;;4.35;3.10;;;5.30;99.90;;;;;;4930987;29;20230;-74